Time;durP1;ratioP1;P1;durP2;ratioP2;P2;SDS_P1;SDS_P2;PMS_P1;PMS_P2;Temp;Humidity;BMP_temperature;BMP_pressure;BME280_temperature;BME280_humidity;BME280_pressure;Samples;Min_cycle;Max_cycle;Signal;HPM_P1;HPM_P2
2023/09/10 00:00:43;;;;;;;0.00;0.00;;;;;;;18.76;100.00;96799.69;5109800;27;20043;-79
2023/09/10 00:03:29;;;;;;;0.00;0.00;;;;;;;18.76;100.00;96799.69;5111297;27;20750;-80
2023/09/10 00:06:15;;;;;;;0.00;0.00;;;;;;;18.77;100.00;96803.19;5111995;27;20163;-80
2023/09/10 00:09:01;;;;;;;0.00;0.00;;;;;;;18.61;100.00;96800.66;5107861;27;20123;-79
2023/09/10 00:11:47;;;;;;;0.00;0.00;;;;;;;18.65;100.00;96798.16;5109841;27;20122;-79
2023/09/10 00:14:32;;;;;;;0.00;0.00;;;;;;;18.69;100.00;96798.44;5111116;27;20524;-79
2023/09/10 00:17:18;;;;;;;0.00;0.00;;;;;;;18.49;100.00;96794.84;5107846;27;20549;-80
2023/09/10 00:20:06;;;;;;;0.00;0.00;;;;;;;18.40;100.00;96795.78;5109747;27;20047;-80
2023/09/10 00:22:52;;;;;;;0.10;0.10;;;;;;;18.20;100.00;96786.00;5109045;27;20059;-80
2023/09/10 00:25:38;;;;;;;0.08;0.00;;;;;;;18.29;100.00;96793.22;5098028;27;20066;-80
2023/09/10 00:28:24;;;;;;;0.10;0.10;;;;;;;18.27;100.00;96789.16;5110425;27;20290;-80
2023/09/10 00:31:10;;;;;;;0.00;0.00;;;;;;;18.22;100.00;96783.81;5095679;27;20659;-80
2023/09/10 00:33:56;;;;;;;0.00;0.00;;;;;;;17.99;100.00;96778.13;5109109;27;20042;-80
2023/09/10 00:36:41;;;;;;;0.10;0.10;;;;;;;17.76;100.00;96789.75;5097750;27;20043;-80
2023/09/10 00:39:27;;;;;;;0.00;0.00;;;;;;;17.79;100.00;96775.63;5111077;27;20035;-80
2023/09/10 00:42:13;;;;;;;0.00;0.00;;;;;;;17.76;100.00;96774.31;5091179;28;20043;-80
2023/09/10 00:44:59;;;;;;;0.00;0.00;;;;;;;17.88;100.00;96776.59;5096451;27;20104;-80
2023/09/10 00:47:46;;;;;;;0.00;0.00;;;;;;;17.71;100.00;96777.06;5088166;27;20624;-79
2023/09/10 00:50:32;;;;;;;0.00;0.00;;;;;;;17.87;100.00;96776.91;5097246;27;20751;-79
2023/09/10 00:53:19;;;;;;;0.00;0.00;;;;;;;17.78;100.00;96777.53;5109533;27;20047;-80
2023/09/10 00:56:09;;;;;;;0.00;0.00;;;;;;;17.76;100.00;96781.63;5109538;27;20405;-80
2023/09/10 00:58:55;;;;;;;0.00;0.00;;;;;;;17.67;100.00;96780.59;5108587;27;20035;-80
2023/09/10 01:01:41;;;;;;;0.08;0.08;;;;;;;17.80;100.00;96790.75;5083497;27;20051;-78
2023/09/10 01:04:28;;;;;;;0.00;0.00;;;;;;;17.77;100.00;96786.75;5095069;27;20815;-79
2023/09/10 01:07:14;;;;;;;0.00;0.00;;;;;;;17.63;100.00;96784.97;5109973;27;20036;-80
2023/09/10 01:09:59;;;;;;;0.00;0.00;;;;;;;17.50;100.00;96779.09;5102100;28;20121;-80
2023/09/10 01:13:13;;;;;;;0.00;0.00;;;;;;;17.46;100.00;96782.69;5095864;27;20046;-80
2023/09/10 01:16:03;;;;;;;0.10;0.10;;;;;;;17.51;100.00;96783.44;5109172;27;20073;-80
2023/09/10 01:18:59;;;;;;;0.00;0.00;;;;;;;17.44;100.00;96782.97;5107420;28;20107;-78
2023/09/10 01:21:55;;;;;;;0.00;0.00;;;;;;;17.44;100.00;96784.88;5109283;28;20339;-78
2023/09/10 01:24:49;;;;;;;0.00;0.00;;;;;;;17.45;100.00;96790.00;5099641;27;20046;-78
2023/09/10 01:27:35;;;;;;;0.00;0.00;;;;;;;17.39;100.00;96787.59;5113645;27;20046;-79
2023/09/10 01:30:21;;;;;;;0.00;0.00;;;;;;;17.19;100.00;96781.25;5097623;27;20126;-79
2023/09/10 01:33:16;;;;;;;0.10;0.10;;;;;;;17.26;100.00;96787.16;5112792;27;20043;-78
2023/09/10 01:36:07;;;;;;;0.10;0.10;;;;;;;17.31;100.00;96780.91;5097822;27;20043;-79
2023/09/10 01:38:58;;;;;;;0.10;0.10;;;;;;;17.32;100.00;96773.59;5113361;27;20115;-80
2023/09/10 01:41:49;;;;;;;0.05;0.05;;;;;;;17.22;100.00;96778.00;5112451;27;20054;-78
2023/09/10 01:44:36;;;;;;;0.08;0.08;;;;;;;17.32;100.00;96781.72;5110753;27;20043;-79
2023/09/10 01:47:22;;;;;;;0.00;0.00;;;;;;;17.34;100.00;96776.81;5098767;27;20383;-79
2023/09/10 01:50:09;;;;;;;0.00;0.00;;;;;;;17.22;100.00;96774.50;5114126;27;20134;-80
2023/09/10 01:52:56;;;;;;;0.10;0.10;;;;;;;17.35;100.00;96776.53;5093835;27;20383;-79
2023/09/10 01:55:43;;;;;;;0.00;0.00;;;;;;;17.39;100.00;96780.31;5112597;27;20039;-79
2023/09/10 01:58:29;;;;;;;0.03;0.03;;;;;;;17.45;100.00;96781.88;5097667;27;20042;-79
2023/09/10 02:01:15;;;;;;;0.10;0.10;;;;;;;17.44;100.00;96782.16;5085806;27;20492;-80
2023/09/10 02:04:03;;;;;;;0.00;0.00;;;;;;;17.39;100.00;96784.91;5097294;27;20047;-80
2023/09/10 02:06:49;;;;;;;0.00;0.00;;;;;;;17.40;100.00;96783.81;5112772;27;20104;-78
2023/09/10 02:09:35;;;;;;;0.00;0.00;;;;;;;17.32;100.00;96774.41;5105931;27;20056;-79
2023/09/10 02:12:20;;;;;;;0.00;0.00;;;;;;;17.26;100.00;96781.75;5116915;27;20039;-79
2023/09/10 02:15:08;;;;;;;0.10;0.10;;;;;;;17.28;100.00;96773.38;5117225;27;20638;-79
2023/09/10 02:17:54;;;;;;;0.10;0.10;;;;;;;17.26;100.00;96776.34;5096507;27;20050;-80
2023/09/10 02:20:40;;;;;;;0.10;0.10;;;;;;;17.29;100.00;96779.59;5113566;27;20043;-79
2023/09/10 02:23:26;;;;;;;0.05;0.05;;;;;;;17.14;100.00;96772.41;5111521;27;20539;-79
2023/09/10 02:26:12;;;;;;;0.10;0.10;;;;;;;17.15;100.00;96779.44;5112448;27;20043;-79
2023/09/10 02:28:57;;;;;;;0.00;0.00;;;;;;;17.15;100.00;96784.84;5111937;27;20043;-79
2023/09/10 02:31:43;;;;;;;0.00;0.00;;;;;;;17.21;100.00;96786.41;5113352;27;20043;-79
2023/09/10 02:34:29;;;;;;;0.00;0.00;;;;;;;17.30;100.00;96781.19;5090724;27;20052;-79
2023/09/10 02:37:15;;;;;;;0.00;0.00;;;;;;;17.34;100.00;96785.75;5091114;27;20043;-80
2023/09/10 02:40:01;;;;;;;0.00;0.00;;;;;;;17.05;100.00;96784.91;5098189;27;20115;-80
2023/09/10 02:42:47;;;;;;;0.00;0.00;;;;;;;16.98;100.00;96786.03;5096391;27;20042;-80
2023/09/10 02:45:33;;;;;;;0.00;0.00;;;;;;;17.07;100.00;96785.44;5112714;27;20039;-80
2023/09/10 02:48:19;;;;;;;0.00;0.00;;;;;;;17.03;100.00;96785.19;5096974;27;20051;-80
2023/09/10 02:51:05;;;;;;;0.00;0.00;;;;;;;17.07;100.00;96788.13;5111954;27;20054;-79
2023/09/10 02:53:51;;;;;;;0.00;0.00;;;;;;;17.01;100.00;96771.16;5098233;27;20167;-80
2023/09/10 02:56:37;;;;;;;0.00;0.00;;;;;;;17.05;100.00;96782.22;5097854;27;20708;-80
2023/09/10 02:59:25;;;;;;;0.00;0.00;;;;;;;17.10;100.00;96782.97;5113184;27;20031;-80
2023/09/10 03:02:11;;;;;;;0.00;0.00;;;;;;;17.06;100.00;96783.81;5096340;27;20459;-81
2023/09/10 03:04:57;;;;;;;0.00;0.00;;;;;;;16.86;100.00;96774.75;5110196;27;20643;-81
2023/09/10 03:07:43;;;;;;;0.00;0.00;;;;;;;16.77;100.00;96779.16;5096052;27;20159;-81
2023/09/10 03:10:29;;;;;;;0.00;0.00;;;;;;;16.83;100.00;96783.44;5098944;27;20080;-81
2023/09/10 03:13:17;;;;;;;0.10;0.10;;;;;;;16.84;100.00;96786.94;5111495;27;20482;-81
2023/09/10 03:16:03;;;;;;;0.10;0.10;;;;;;;16.90;100.00;96778.53;5109668;27;20039;-81
2023/09/10 03:18:49;;;;;;;0.00;0.00;;;;;;;16.94;100.00;96771.47;5094226;27;20053;-80
2023/09/10 03:21:37;;;;;;;0.08;0.08;;;;;;;16.94;100.00;96767.94;5097824;27;20046;-81
2023/09/10 03:24:22;;;;;;;0.00;0.00;;;;;;;16.82;100.00;96776.41;5082529;27;20047;-81
2023/09/10 03:27:08;;;;;;;0.00;0.00;;;;;;;16.85;100.00;96770.44;5110673;27;20397;-81
2023/09/10 03:29:54;;;;;;;0.10;0.10;;;;;;;16.91;100.00;96769.31;5090905;27;20039;-81
2023/09/10 03:32:40;;;;;;;0.05;0.05;;;;;;;16.90;100.00;96777.72;5109778;27;20103;-81
2023/09/10 03:35:26;;;;;;;0.10;0.10;;;;;;;16.75;100.00;96780.53;5099495;27;20064;-81
2023/09/10 03:38:12;;;;;;;0.00;0.00;;;;;;;16.71;100.00;96778.34;5096477;27;20062;-82
2023/09/10 03:40:58;;;;;;;0.00;0.00;;;;;;;16.79;100.00;96778.84;5097131;27;20043;-80
2023/09/10 03:43:44;;;;;;;0.10;0.10;;;;;;;16.76;100.00;96774.03;5096464;27;20685;-82
2023/09/10 03:46:30;;;;;;;0.10;0.10;;;;;;;16.71;100.00;96774.84;5098493;27;20478;-81
2023/09/10 03:49:16;;;;;;;0.00;0.00;;;;;;;16.69;100.00;96771.63;5093315;27;20031;-82
2023/09/10 03:52:14;;;;;;;0.00;0.00;;;;;;;16.75;100.00;96783.22;5096956;27;20058;-81
2023/09/10 03:55:00;;;;;;;0.00;0.00;;;;;;;16.60;100.00;96773.28;5067387;27;20050;-81
2023/09/10 03:57:46;;;;;;;0.10;0.10;;;;;;;16.61;100.00;96783.00;5096682;27;20119;-81
2023/09/10 04:00:33;;;;;;;0.10;0.10;;;;;;;16.57;100.00;96779.22;5106332;27;20111;-81
2023/09/10 04:03:19;;;;;;;0.00;0.00;;;;;;;16.53;100.00;96784.38;5112794;27;20785;-81
2023/09/10 04:06:05;;;;;;;0.10;0.10;;;;;;;16.35;100.00;96788.53;5112077;27;20039;-82
2023/09/10 04:08:51;;;;;;;0.00;0.00;;;;;;;16.39;100.00;96784.19;5112428;27;20556;-81
2023/09/10 04:11:37;;;;;;;0.00;0.00;;;;;;;16.45;100.00;96784.97;5108186;27;20046;-81
2023/09/10 04:14:23;;;;;;;0.10;0.10;;;;;;;16.49;100.00;96780.63;5111458;27;20054;-81
2023/09/10 04:17:09;;;;;;;0.00;0.00;;;;;;;16.50;100.00;96778.72;5107713;27;20716;-81
2023/09/10 04:19:55;;;;;;;0.00;0.00;;;;;;;16.47;100.00;96790.09;5096547;27;20047;-81
2023/09/10 04:22:41;;;;;;;0.08;0.00;;;;;;;16.44;100.00;96786.88;5111509;27;20051;-81
2023/09/10 04:25:27;;;;;;;0.10;0.10;;;;;;;16.45;100.00;96782.28;5112660;27;20716;-81
2023/09/10 04:28:13;;;;;;;0.03;0.03;;;;;;;16.52;100.00;96793.59;5098258;27;20050;-81
2023/09/10 04:30:59;;;;;;;0.08;0.08;;;;;;;16.42;100.00;96789.03;5110706;27;20039;-81
2023/09/10 04:33:45;;;;;;;0.00;0.00;;;;;;;16.49;100.00;96788.72;5112492;27;20035;-81
2023/09/10 04:36:31;;;;;;;0.00;0.00;;;;;;;16.53;100.00;96795.19;5099782;27;20238;-81
2023/09/10 04:39:18;;;;;;;0.03;0.03;;;;;;;16.57;100.00;96795.44;5097902;27;20081;-82
2023/09/10 04:42:04;;;;;;;0.10;0.10;;;;;;;16.58;100.00;96788.97;5091797;27;20039;-81
2023/09/10 04:44:50;;;;;;;0.00;0.00;;;;;;;16.54;100.00;96780.59;5113928;27;20043;-82
2023/09/10 04:47:36;;;;;;;0.10;0.10;;;;;;;16.46;100.00;96789.28;5111692;27;20051;-81
2023/09/10 04:50:22;;;;;;;0.10;0.10;;;;;;;16.41;100.00;96792.81;5095124;27;20080;-81
2023/09/10 04:53:09;;;;;;;0.00;0.00;;;;;;;16.44;100.00;96796.88;5113806;27;20067;-82
2023/09/10 04:55:55;;;;;;;0.10;0.10;;;;;;;16.38;100.00;96795.25;5096365;27;20043;-81
2023/09/10 04:58:42;;;;;;;0.00;0.00;;;;;;;16.30;100.00;96796.66;5094298;27;20612;-81
2023/09/10 05:01:28;;;;;;;0.00;0.00;;;;;;;16.25;100.00;96799.34;5097632;27;20063;-81
2023/09/10 05:04:14;;;;;;;0.00;0.00;;;;;;;16.35;100.00;96804.75;5110515;27;20050;-82
2023/09/10 05:07:00;;;;;;;0.03;0.00;;;;;;;16.38;100.00;96806.06;5098039;27;20067;-82
2023/09/10 05:09:46;;;;;;;0.03;0.03;;;;;;;16.38;100.00;96809.56;5096918;27;20043;-80
2023/09/10 05:12:32;;;;;;;0.10;0.10;;;;;;;16.41;100.00;96803.59;5097307;27;20031;-81
2023/09/10 05:15:18;;;;;;;0.00;0.00;;;;;;;16.36;100.00;96800.16;5091813;27;20044;-81
2023/09/10 05:18:04;;;;;;;0.10;0.10;;;;;;;16.39;100.00;96805.78;5109648;28;20031;-81
2023/09/10 05:20:52;;;;;;;0.00;0.00;;;;;;;16.39;100.00;96816.59;5093005;28;20556;-81
2023/09/10 05:23:38;;;;;;;0.10;0.10;;;;;;;16.34;100.00;96816.63;5111699;28;21059;-81
2023/09/10 05:26:24;;;;;;;0.00;0.00;;;;;;;16.46;100.00;96820.88;5098010;28;20031;-81
2023/09/10 05:29:10;;;;;;;0.00;0.00;;;;;;;16.57;100.00;96815.16;5109662;28;20565;-81
2023/09/10 05:31:56;;;;;;;0.00;0.00;;;;;;;16.66;100.00;96815.41;5094710;28;20055;-82
2023/09/10 05:34:42;;;;;;;0.00;0.00;;;;;;;16.70;100.00;96802.97;5094330;28;20715;-82
2023/09/10 05:37:27;;;;;;;0.10;0.10;;;;;;;16.79;100.00;96803.97;5084768;28;20051;-82
2023/09/10 05:40:13;;;;;;;0.10;0.10;;;;;;;16.76;100.00;96815.38;5099425;28;20497;-81
2023/09/10 05:42:59;;;;;;;0.00;0.00;;;;;;;16.77;100.00;96808.88;5107898;28;20118;-81
2023/09/10 05:45:46;;;;;;;0.00;0.00;;;;;;;16.84;100.00;96812.06;5098762;28;20096;-81
2023/09/10 05:48:32;;;;;;;0.00;0.00;;;;;;;16.84;100.00;96811.25;5095693;28;20225;-82
2023/09/10 05:51:18;;;;;;;0.00;0.00;;;;;;;16.92;100.00;96813.38;5105751;28;20839;-82
2023/09/10 05:54:04;;;;;;;0.00;0.00;;;;;;;16.97;100.00;96818.75;5097202;28;20046;-81
2023/09/10 05:56:50;;;;;;;0.10;0.10;;;;;;;17.06;100.00;96825.19;5095351;28;20031;-82
2023/09/10 05:59:36;;;;;;;0.00;0.00;;;;;;;17.08;100.00;96833.00;5098806;28;20038;-81
2023/09/10 06:02:23;;;;;;;0.00;0.00;;;;;;;17.15;100.00;96819.97;5095275;28;20040;-84
2023/09/10 06:05:09;;;;;;;0.00;0.00;;;;;;;17.17;100.00;96823.19;5095787;28;20485;-81
2023/09/10 06:07:55;;;;;;;0.00;0.00;;;;;;;17.23;100.00;96825.59;5110630;28;20067;-81
2023/09/10 06:10:41;;;;;;;0.10;0.10;;;;;;;17.36;100.00;96824.16;5087079;27;20062;-80
2023/09/10 06:13:28;;;;;;;0.00;0.00;;;;;;;17.43;100.00;96830.06;5111623;27;20917;-81
2023/09/10 06:16:14;;;;;;;0.10;0.10;;;;;;;17.48;100.00;96826.47;5099035;27;20505;-80
2023/09/10 06:19:00;;;;;;;0.10;0.10;;;;;;;17.55;100.00;96832.38;5110243;27;20047;-82
2023/09/10 06:21:46;;;;;;;0.00;0.00;;;;;;;17.65;100.00;96828.75;5099222;27;20091;-82
2023/09/10 06:24:32;;;;;;;0.00;0.00;;;;;;;17.75;100.00;96832.22;5097694;27;20494;-83
2023/09/10 06:27:17;;;;;;;0.00;0.00;;;;;;;17.85;100.00;96828.63;5098891;27;20076;-83
2023/09/10 06:30:04;;;;;;;0.00;0.00;;;;;;;17.92;100.00;96826.38;5108200;27;20095;-83
2023/09/10 06:32:50;;;;;;;0.10;0.10;;;;;;;18.02;100.00;96828.97;5099632;27;20039;-79
2023/09/10 06:35:36;;;;;;;0.10;0.10;;;;;;;18.15;100.00;96830.19;5114583;27;20100;-82
2023/09/10 06:38:22;;;;;;;0.00;0.00;;;;;;;18.29;100.00;96830.31;5116119;27;20043;-83
2023/09/10 06:41:08;;;;;;;0.00;0.00;;;;;;;18.40;100.00;96839.94;5107176;27;20042;-84
2023/09/10 06:43:53;;;;;;;0.00;0.00;;;;;;;18.46;100.00;96819.81;5098279;27;20046;-80
2023/09/10 06:46:42;;;;;;;0.10;0.10;;;;;;;18.65;100.00;96834.22;5107557;27;20042;-80
2023/09/10 06:49:27;;;;;;;0.00;0.00;;;;;;;18.70;100.00;96833.38;5113575;27;20492;-78
2023/09/10 06:52:13;;;;;;;0.00;0.00;;;;;;;18.81;100.00;96823.97;5113699;27;20560;-81
2023/09/10 06:55:01;;;;;;;0.00;0.00;;;;;;;18.93;100.00;96821.66;5114269;27;20513;-83
2023/09/10 06:57:50;;;;;;;0.03;0.03;;;;;;;19.11;100.00;96825.44;5114934;27;20130;-83
2023/09/10 07:00:38;;;;;;;0.05;0.05;;;;;;;19.28;100.00;96824.13;5113550;27;20039;-81
2023/09/10 07:03:24;;;;;;;0.03;0.03;;;;;;;19.38;100.00;96826.69;5110917;27;20141;-82
2023/09/10 07:06:10;;;;;;;0.00;0.00;;;;;;;19.47;100.00;96830.34;5112734;27;20048;-83
2023/09/10 07:08:58;;;;;;;0.00;0.00;;;;;;;19.53;100.00;96837.28;5113266;27;20489;-82
2023/09/10 07:11:44;;;;;;;0.00;0.00;;;;;;;19.61;100.00;96833.94;5111180;27;20425;-83
2023/09/10 07:14:30;;;;;;;0.00;0.00;;;;;;;19.64;100.00;96833.34;5108807;27;20043;-83
2023/09/10 07:17:16;;;;;;;0.08;0.08;;;;;;;19.75;100.00;96834.75;5111014;27;20043;-82
2023/09/10 07:20:02;;;;;;;0.08;0.08;;;;;;;19.88;100.00;96837.81;5109789;27;20549;-82
2023/09/10 07:22:48;;;;;;;0.10;0.10;;;;;;;20.00;100.00;96840.88;5110064;27;20049;-82
2023/09/10 07:25:34;;;;;;;0.10;0.10;;;;;;;20.11;100.00;96842.28;5113660;27;20036;-80
2023/09/10 07:28:19;;;;;;;0.00;0.00;;;;;;;20.21;100.00;96850.22;5111477;27;20318;-81
2023/09/10 07:31:07;;;;;;;0.00;0.00;;;;;;;20.29;100.00;96837.84;5111027;27;20095;-83
2023/09/10 07:33:53;;;;;;;0.10;0.10;;;;;;;20.41;100.00;96851.75;5109686;27;20046;-83
2023/09/10 07:36:40;;;;;;;0.00;0.00;;;;;;;20.51;100.00;96846.16;5111752;27;20046;-81
2023/09/10 07:39:29;;;;;;;0.00;0.00;;;;;;;20.62;100.00;96848.66;5112457;27;20067;-80
2023/09/10 07:42:15;;;;;;;0.00;0.00;;;;;;;20.71;100.00;96850.38;5096775;27;20115;-81
2023/09/10 07:45:01;;;;;;;0.10;0.10;;;;;;;20.77;100.00;96851.06;5111083;27;20497;-83
2023/09/10 07:47:47;;;;;;;0.10;0.10;;;;;;;20.90;100.00;96847.50;5108951;27;20569;-82
2023/09/10 07:50:33;;;;;;;0.10;0.10;;;;;;;21.01;100.00;96850.81;5114251;27;20117;-84
2023/09/10 07:53:19;;;;;;;0.00;0.00;;;;;;;21.08;100.00;96840.31;5112816;27;20042;-83
2023/09/10 07:56:05;;;;;;;0.05;0.05;;;;;;;21.22;100.00;96848.44;5112513;27;20042;-82
2023/09/10 07:58:50;;;;;;;0.00;0.00;;;;;;;21.32;100.00;96854.50;5108612;27;20058;-80
2023/09/10 08:01:36;;;;;;;0.00;0.00;;;;;;;21.43;100.00;96849.63;5112379;27;20411;-84
2023/09/10 08:04:23;;;;;;;0.00;0.00;;;;;;;21.57;100.00;96858.53;5111301;27;20046;-80
2023/09/10 08:07:10;;;;;;;0.00;0.00;;;;;;;21.69;100.00;96861.47;5112502;27;20601;-81
2023/09/10 08:09:56;;;;;;;0.08;0.03;;;;;;;21.81;100.00;96865.59;5113425;27;20039;-79
2023/09/10 08:12:42;;;;;;;0.00;0.00;;;;;;;21.94;100.00;96867.41;5112368;27;20543;-80
2023/09/10 08:15:28;;;;;;;0.00;0.00;;;;;;;22.06;100.00;96854.03;5111990;27;20493;-84
2023/09/10 08:18:14;;;;;;;0.10;0.10;;;;;;;22.21;100.00;96863.75;5114305;27;20043;-83
2023/09/10 08:21:00;;;;;;;0.00;0.00;;;;;;;22.31;100.00;96865.38;5123688;27;20189;-80
2023/09/10 08:23:47;;;;;;;0.00;0.00;;;;;;;22.40;100.00;96861.56;5132998;27;20066;-81
2023/09/10 08:26:33;;;;;;;0.00;0.00;;;;;;;22.52;100.00;96858.28;5122740;27;20112;-83
2023/09/10 08:29:18;;;;;;;0.00;0.00;;;;;;;22.60;100.00;96862.16;5115626;27;20189;-82
2023/09/10 08:32:04;;;;;;;0.00;0.00;;;;;;;22.69;100.00;96857.50;5112151;27;20046;-84
2023/09/10 08:34:50;;;;;;;0.00;0.00;;;;;;;22.76;100.00;96860.59;5110503;27;20047;-82
2023/09/10 08:37:36;;;;;;;0.00;0.00;;;;;;;22.86;100.00;96856.78;5112440;27;20051;-82
2023/09/10 08:40:23;;;;;;;0.00;0.00;;;;;;;22.97;100.00;96863.56;5110996;27;20196;-82
2023/09/10 08:43:14;;;;;;;0.10;0.10;;;;;;;23.05;100.00;96860.84;5105834;27;20043;-82
2023/09/10 08:46:01;;;;;;;;;;;;;;;23.17;100.00;96852.00;5110654;27;20071;-80
2023/09/10 08:48:50;;;;;;;0.10;0.10;;;;;;;23.28;100.00;96852.53;5109917;27;19923;-79
2023/09/10 08:51:36;;;;;;;0.10;0.10;;;;;;;23.41;100.00;96862.47;5111155;27;20051;-83
2023/09/10 08:54:22;;;;;;;0.10;0.10;;;;;;;23.49;100.00;96855.38;5108003;27;20386;-83
2023/09/10 08:57:09;;;;;;;0.00;0.00;;;;;;;23.62;100.00;96860.72;5092019;27;20043;-82
2023/09/10 08:59:58;;;;;;;0.00;0.00;;;;;;;23.76;100.00;96857.03;5110133;27;20123;-83
2023/09/10 09:02:45;;;;;;;0.10;0.10;;;;;;;23.88;100.00;96855.22;5106706;27;20039;-81
2023/09/10 09:05:32;;;;;;;0.05;0.05;;;;;;;23.99;100.00;96850.22;5110611;27;20079;-84
2023/09/10 09:08:23;;;;;;;0.00;0.00;;;;;;;24.15;100.00;96851.31;5107856;27;20056;-84
2023/09/10 09:11:12;;;;;;;0.10;0.10;;;;;;;24.35;100.00;96851.72;5108912;27;20045;-81
2023/09/10 09:13:59;;;;;;;0.00;0.00;;;;;;;24.45;100.00;96845.91;5098602;27;20091;-83
2023/09/10 09:16:47;;;;;;;0.10;0.10;;;;;;;24.57;100.00;96846.00;5092237;27;20065;-80
2023/09/10 09:19:36;;;;;;;0.10;0.10;;;;;;;24.71;100.00;96854.78;5108899;28;20103;-84
2023/09/10 09:22:25;;;;;;;0.10;0.10;;;;;;;24.89;100.00;96860.16;5103976;28;20092;-80
2023/09/10 09:25:10;;;;;;;0.00;0.00;;;;;;;24.92;100.00;96854.84;5108466;28;20298;-80
2023/09/10 09:27:58;;;;;;;0.00;0.00;;;;;;;25.03;100.00;96860.75;5103707;28;20604;-82
2023/09/10 09:30:43;;;;;;;0.00;0.00;;;;;;;25.15;100.00;96858.09;5111690;28;20221;-81
2023/09/10 09:33:29;;;;;;;0.08;0.08;;;;;;;25.28;100.00;96851.53;5092939;28;20067;-82
2023/09/10 09:36:15;;;;;;;0.00;0.00;;;;;;;25.39;100.00;96851.16;5110511;28;20062;-81
2023/09/10 09:39:02;;;;;;;0.00;0.00;;;;;;;25.55;100.00;96850.22;5105755;28;20031;-81
2023/09/10 09:41:51;;;;;;;0.08;0.08;;;;;;;25.66;100.00;96847.84;5078733;27;20059;-83
2023/09/10 09:44:37;;;;;;;0.00;0.00;;;;;;;25.79;100.00;96841.31;5111012;27;20035;-84
2023/09/10 09:47:23;;;;;;;0.05;0.05;;;;;;;25.86;100.00;96840.78;5111672;27;20043;-83
2023/09/10 09:50:13;;;;;;;0.00;0.00;;;;;;;26.03;100.00;96854.28;5115701;27;20043;-81
2023/09/10 09:52:59;;;;;;;0.10;0.10;;;;;;;26.18;100.00;96852.84;5108447;27;20080;-81
2023/09/10 09:55:45;;;;;;;0.10;0.10;;;;;;;26.28;100.00;96844.16;5114221;27;20083;-82
2023/09/10 09:58:32;;;;;;;0.00;0.00;;;;;;;26.27;99.02;96836.28;5110946;27;20035;-81
2023/09/10 10:01:20;;;;;;;0.10;0.10;;;;;;;26.54;100.00;96826.63;5113075;27;20126;-85
2023/09/10 10:04:06;;;;;;;0.10;0.10;;;;;;;26.65;99.21;96834.06;5098107;27;20050;-82
2023/09/10 10:06:52;;;;;;;0.00;0.00;;;;;;;26.83;98.23;96831.84;5113076;27;20069;-83
2023/09/10 10:09:40;;;;;;;0.10;0.10;;;;;;;27.06;97.76;96829.47;5115384;27;20043;-85
2023/09/10 10:12:26;;;;;;;0.00;0.00;;;;;;;27.19;97.94;96822.00;5115707;27;20077;-82
2023/09/10 10:15:13;;;;;;;0.10;0.10;;;;;;;27.43;95.00;96821.94;5110803;27;20157;-83
2023/09/10 10:17:59;;;;;;;0.10;0.10;;;;;;;27.63;95.40;96811.09;5112786;27;20104;-83
2023/09/10 10:20:47;;;;;;;0.10;0.10;;;;;;;28.00;93.10;96812.50;5114862;27;20756;-81
2023/09/10 10:23:33;;;;;;;0.00;0.00;;;;;;;28.49;90.40;96814.19;5087013;27;20043;-81
2023/09/10 10:26:20;;;;;;;0.10;0.10;;;;;;;29.08;90.97;96802.19;5114155;27;20045;-81
2023/09/10 10:29:07;;;;;;;0.10;0.10;;;;;;;29.28;87.60;96805.78;5112414;27;20046;-82
2023/09/10 10:32:10;;;;;;;0.10;0.10;;;;;;;30.22;81.16;96805.28;5111154;27;20480;-82
2023/09/10 10:35:05;;;;;;;0.10;0.10;;;;;;;31.58;78.96;96799.00;5111709;27;20080;-81
2023/09/10 10:37:58;;;;;;;0.10;0.10;;;;;;;32.57;65.71;96795.69;5097426;27;20709;-83
2023/09/10 10:40:46;;;;;;;0.10;0.10;;;;;;;34.92;53.06;96795.75;5092807;27;20517;-83
2023/09/10 10:43:41;;;;;;;0.20;0.20;;;;;;;36.54;44.67;96787.84;5110376;27;20039;-80
2023/09/10 10:46:29;;;;;;;0.10;0.10;;;;;;;38.41;36.57;96790.84;5113665;27;20047;-81
2023/09/10 10:49:15;;;;;;;0.10;0.10;;;;;;;39.94;33.15;96781.59;5113681;27;20043;-84
2023/09/10 10:52:05;;;;;;;0.10;0.10;;;;;;;40.63;31.03;96788.03;5112801;27;20055;-81
2023/09/10 10:54:52;;;;;;;0.10;0.10;;;;;;;41.40;29.67;96782.78;5115191;27;20082;-80
2023/09/10 10:57:38;;;;;;;0.10;0.10;;;;;;;41.08;30.81;96781.63;5112601;27;20057;-82
2023/09/10 11:00:25;;;;;;;0.10;0.10;;;;;;;42.40;27.75;96793.88;5114454;27;20042;-80
2023/09/10 11:03:15;;;;;;;0.10;0.10;;;;;;;43.46;24.98;96783.84;5110877;27;20392;-81
2023/09/10 11:06:04;;;;;;;;;;;;;;;43.55;23.85;96780.28;5114950;27;20134;-82
2023/09/10 11:08:50;;;;;;;0.10;0.10;;;;;;;44.13;24.87;96788.16;5112064;27;20641;-81
2023/09/10 11:11:37;;;;;;;0.10;0.10;;;;;;;44.47;23.97;96784.38;5115508;27;20047;-81
2023/09/10 11:14:22;;;;;;;0.10;0.10;;;;;;;45.34;22.87;96783.13;5112952;27;20070;-81
2023/09/10 11:17:23;;;;;;;0.20;0.20;;;;;;;45.59;21.04;96769.91;5112213;27;20552;-80
2023/09/10 11:20:09;;;;;;;0.15;0.15;;;;;;;46.43;21.07;96775.63;5112692;27;20148;-81
2023/09/10 11:23:11;;;;;;;0.10;0.10;;;;;;;46.28;19.89;96780.41;5104280;27;20122;-81
2023/09/10 11:26:12;;;;;;;0.10;0.10;;;;;;;46.28;19.38;96781.19;5123686;27;20039;-80
2023/09/10 11:28:59;;;;;;;0.00;0.00;;;;;;;46.88;19.72;96771.00;5118164;27;20079;-80
2023/09/10 11:31:47;;;;;;;0.10;0.10;;;;;;;46.48;18.83;96766.50;5114161;27;20054;-81
2023/09/10 11:34:34;;;;;;;0.10;0.10;;;;;;;46.61;20.77;96769.88;5114848;27;20126;-80
2023/09/10 11:37:22;;;;;;;0.10;0.10;;;;;;;47.53;18.15;96774.06;5112603;27;20036;-80
2023/09/10 11:40:08;;;;;;;0.10;0.10;;;;;;;48.21;17.83;96771.16;5095325;27;20058;-81
2023/09/10 11:42:54;;;;;;;0.10;0.10;;;;;;;47.16;19.13;96766.69;5112003;27;20031;-81
2023/09/10 11:45:40;;;;;;;0.10;0.10;;;;;;;48.19;18.47;96768.81;5113073;27;20726;-80
2023/09/10 11:48:26;;;;;;;0.10;0.10;;;;;;;47.99;17.92;96766.69;5114121;27;20035;-81
2023/09/10 11:51:12;;;;;;;0.10;0.10;;;;;;;48.67;17.21;96768.50;5110396;27;20195;-81
2023/09/10 11:53:59;;;;;;;0.10;0.10;;;;;;;48.94;17.07;96764.44;5107462;27;20282;-81
2023/09/10 11:56:49;;;;;;;0.00;0.00;;;;;;;49.65;15.35;96759.31;5085010;27;20047;-80
2023/09/10 11:59:34;;;;;;;0.10;0.10;;;;;;;49.66;16.21;96755.22;5114008;27;20944;-82
2023/09/10 12:02:21;;;;;;;0.10;0.10;;;;;;;49.06;15.03;96762.56;5111977;27;20115;-80
2023/09/10 12:05:08;;;;;;;0.10;0.10;;;;;;;48.36;17.50;96756.97;5112027;27;20510;-81
2023/09/10 12:07:54;;;;;;;0.10;0.10;;;;;;;47.19;16.72;96762.09;5107974;27;20043;-81
2023/09/10 12:10:41;;;;;;;0.10;0.10;;;;;;;48.89;16.35;96755.88;5111827;27;20501;-83
2023/09/10 12:13:27;;;;;;;0.10;0.10;;;;;;;49.16;15.28;96757.50;5111990;27;20631;-81
2023/09/10 12:16:13;;;;;;;0.10;0.10;;;;;;;49.05;16.10;96758.94;5110035;27;20042;-81
2023/09/10 12:18:59;;;;;;;0.10;0.10;;;;;;;49.87;15.75;96753.09;5111423;27;20047;-81
2023/09/10 12:21:45;;;;;;;0.10;0.10;;;;;;;50.62;15.25;96748.22;5114663;27;20185;-82
2023/09/10 12:24:31;;;;;;;0.10;0.10;;;;;;;51.41;14.17;96758.63;5095646;27;20047;-81
2023/09/10 12:27:17;;;;;;;0.10;0.10;;;;;;;51.46;13.45;96746.50;5111067;27;20035;-81
2023/09/10 12:30:03;;;;;;;0.10;0.10;;;;;;;51.62;14.32;96744.97;5110976;27;20397;-81
2023/09/10 12:32:50;;;;;;;0.10;0.10;;;;;;;48.96;16.25;96738.44;5109124;27;20039;-81
2023/09/10 12:35:36;;;;;;;0.20;0.20;;;;;;;48.25;14.93;96738.47;5112994;27;20051;-82
2023/09/10 12:38:22;;;;;;;0.10;0.10;;;;;;;48.10;15.63;96736.94;5111189;27;20031;-82
2023/09/10 12:41:09;;;;;;;0.17;0.17;;;;;;;46.78;16.84;96735.50;5113619;27;20587;-81
2023/09/10 12:43:55;;;;;;;0.10;0.10;;;;;;;49.90;14.90;96735.81;5111507;27;20354;-81
2023/09/10 12:46:41;;;;;;;0.10;0.10;;;;;;;49.78;13.88;96733.38;5112743;27;20050;-81
2023/09/10 12:49:27;;;;;;;0.20;0.20;;;;;;;51.23;13.57;96727.78;5110598;27;20150;-83
2023/09/10 12:52:12;;;;;;;0.20;0.20;;;;;;;51.41;13.09;96732.19;5109502;27;20054;-81
2023/09/10 12:54:58;;;;;;;0.10;0.10;;;;;;;50.42;14.17;96729.97;5091980;27;20042;-81
2023/09/10 12:57:55;;;;;;;0.20;0.20;;;;;;;50.58;13.01;96727.72;5113007;27;20549;-81